createdAt,value
2022-11-05T00:00:36.735Z,8.86
2022-11-05T00:03:03.522Z,8.86
2022-11-05T00:05:30.987Z,8.88
2022-11-05T00:08:02.619Z,8.88
2022-11-05T00:10:31.344Z,8.79
2022-11-05T00:12:59.359Z,8.71
2022-11-05T00:15:25.909Z,8.60
2022-11-05T00:17:52.506Z,8.59
2022-11-05T00:20:19.088Z,8.34
2022-11-05T00:22:45.646Z,8.27
2022-11-05T00:25:13.561Z,8.30
2022-11-05T00:27:40.550Z,8.17
2022-11-05T00:30:08.377Z,8.01
2022-11-05T00:32:36.636Z,8.06
2022-11-05T00:35:03.574Z,8.01
2022-11-05T00:37:30.299Z,8.10
2022-11-05T00:39:56.963Z,7.83
2022-11-05T00:42:24.957Z,7.62
2022-11-05T00:44:51.544Z,7.59
2022-11-05T00:47:18.107Z,7.69
2022-11-05T00:49:44.698Z,7.64
2022-11-05T00:52:11.468Z,7.72
2022-11-05T00:54:38.064Z,7.43
2022-11-05T00:57:04.982Z,7.63
2022-11-05T00:59:32.930Z,7.73
2022-11-05T01:02:01.095Z,7.79
2022-11-05T01:04:27.787Z,7.77
2022-11-05T01:06:55.068Z,7.54
2022-11-05T01:09:21.606Z,7.65
2022-11-05T01:11:48.173Z,7.53
2022-11-05T01:14:15.794Z,7.70
2022-11-05T01:16:43.876Z,7.77
2022-11-05T01:19:11.476Z,7.84
2022-11-05T01:21:38.482Z,7.84
2022-11-05T01:24:05.862Z,7.81
2022-11-05T01:26:32.483Z,7.83
2022-11-05T01:28:59.237Z,7.84
2022-11-05T01:31:26.267Z,8.02
2022-11-05T01:33:54.177Z,7.93
2022-11-05T01:36:20.843Z,7.97
2022-11-05T01:38:47.465Z,8.06
2022-11-05T01:41:14.124Z,8.05
2022-11-05T01:43:49.339Z,8.00
2022-11-05T01:46:19.821Z,7.83
2022-11-05T01:48:49.056Z,7.79
2022-11-05T01:51:19.962Z,7.63
2022-11-05T01:53:50.808Z,7.67
2022-11-05T01:56:24.097Z,7.66
2022-11-05T01:58:56.643Z,7.53
2022-11-05T02:01:23.319Z,7.42
2022-11-05T02:03:54.472Z,7.30
2022-11-05T02:06:22.511Z,7.38
2022-11-05T02:08:56.754Z,7.42
2022-11-05T02:11:23.588Z,7.30
2022-11-05T02:13:50.789Z,7.18
2022-11-05T02:16:30.413Z,7.28
2022-11-05T02:19:12.105Z,7.24
2022-11-05T02:21:57.957Z,7.20
2022-11-05T02:24:50.870Z,7.01
2022-11-05T02:27:26.286Z,6.90
2022-11-05T02:30:12.121Z,6.92
2022-11-05T02:32:57.441Z,6.90
2022-11-05T02:35:35.453Z,6.86
2022-11-05T02:38:08.381Z,6.76
2022-11-05T02:40:46.661Z,6.64
2022-11-05T02:43:21.590Z,6.67
2022-11-05T02:45:57.185Z,6.66
2022-11-05T02:48:30.205Z,6.54
2022-11-05T02:51:03.457Z,6.45
2022-11-05T02:53:38.729Z,6.44
2022-11-05T02:56:10.557Z,6.37
2022-11-05T02:58:37.099Z,6.25
2022-11-05T03:01:03.743Z,6.28
2022-11-05T03:03:37.140Z,6.38
2022-11-05T03:06:29.313Z,6.27
2022-11-05T03:09:35.156Z,6.20
2022-11-05T03:12:10.753Z,6.18
2022-11-05T03:14:44.478Z,6.10
2022-11-05T03:17:19.655Z,6.15
2022-11-05T03:19:53.728Z,6.21
2022-11-05T03:22:25.670Z,6.10
2022-11-05T03:25:02.392Z,6.13
2022-11-05T03:27:31.710Z,6.09
2022-11-05T03:30:01.672Z,6.03
2022-11-05T03:32:31.604Z,6.02
2022-11-05T03:35:04.867Z,5.98
2022-11-05T03:37:35.328Z,6.02
2022-11-05T03:40:05.055Z,5.96
2022-11-05T03:42:35.999Z,6.02
2022-11-05T03:45:07.843Z,5.84
2022-11-05T03:47:39.344Z,5.98
2022-11-05T03:50:15.327Z,6.04
2022-11-05T03:52:47.292Z,5.92
2022-11-05T03:55:14.405Z,5.90
2022-11-05T03:57:46.682Z,5.92
2022-11-05T04:00:14.412Z,5.79
2022-11-05T04:02:41.863Z,5.94
2022-11-05T04:05:10.208Z,5.82
2022-11-05T04:07:36.708Z,5.75
2022-11-05T04:10:03.591Z,5.70
2022-11-05T04:12:30.563Z,5.60
2022-11-05T04:14:57.140Z,5.86
2022-11-05T04:17:23.925Z,5.68
2022-11-05T04:19:50.466Z,5.60
2022-11-05T04:22:18.433Z,5.69
2022-11-05T04:24:44.974Z,5.50
2022-11-05T04:27:11.518Z,5.59
2022-11-05T04:29:38.165Z,5.48
2022-11-05T04:32:05.402Z,5.43
2022-11-05T04:34:31.963Z,5.59
2022-11-05T04:36:58.448Z,5.55
2022-11-05T04:39:26.333Z,5.51
2022-11-05T04:41:52.961Z,5.39
2022-11-05T04:44:19.601Z,5.44
2022-11-05T04:46:46.211Z,5.19
2022-11-05T04:49:12.739Z,5.19
2022-11-05T04:51:39.405Z,5.32
2022-11-05T04:54:06.015Z,5.26
2022-11-05T04:56:34.151Z,5.25
2022-11-05T04:59:00.765Z,5.15
2022-11-05T05:01:27.357Z,5.23
2022-11-05T05:03:54.618Z,5.33
2022-11-05T05:06:22.144Z,5.28
2022-11-05T05:08:49.829Z,5.43
2022-11-05T05:11:17.945Z,5.37
2022-11-05T05:13:46.493Z,5.28
2022-11-05T05:16:18.610Z,5.20
2022-11-05T05:18:46.430Z,5.15
2022-11-05T05:21:13.599Z,5.09
2022-11-05T05:23:40.192Z,5.24
2022-11-05T05:26:06.694Z,5.25
2022-11-05T05:28:33.589Z,5.19
2022-11-05T05:31:02.132Z,5.28
2022-11-05T05:33:28.822Z,5.20
2022-11-05T05:35:57.493Z,5.12
2022-11-05T05:38:24.296Z,5.22
2022-11-05T05:40:51.519Z,5.17
2022-11-05T05:43:18.129Z,5.09
2022-11-05T05:45:44.636Z,5.03
2022-11-05T05:48:12.551Z,4.95
2022-11-05T05:50:39.081Z,4.93
2022-11-05T05:53:08.904Z,4.98
2022-11-05T05:55:35.684Z,5.16
2022-11-05T05:58:02.339Z,5.08
2022-11-05T06:00:29.259Z,4.94
2022-11-05T06:02:56.145Z,5.10
2022-11-05T06:05:24.282Z,4.95
2022-11-05T06:07:55.499Z,4.85
2022-11-05T06:10:22.135Z,4.84
2022-11-05T06:12:48.725Z,4.98
2022-11-05T06:15:15.317Z,5.07
2022-11-05T06:17:43.096Z,4.96
2022-11-05T06:20:10.702Z,4.78
2022-11-05T06:22:39.323Z,4.99
2022-11-05T06:25:07.303Z,4.83
2022-11-05T06:27:34.106Z,4.73
2022-11-05T06:30:00.659Z,4.90
2022-11-05T06:32:27.154Z,4.86
2022-11-05T06:34:53.709Z,4.99
2022-11-05T06:37:20.234Z,4.84
2022-11-05T06:39:48.120Z,4.93
2022-11-05T06:42:19.111Z,4.81
2022-11-05T06:44:46.092Z,4.79
2022-11-05T06:47:12.673Z,4.92
2022-11-05T06:49:39.260Z,4.94
2022-11-05T06:52:05.739Z,5.06
2022-11-05T06:54:32.398Z,4.86
2022-11-05T06:57:00.238Z,4.85
2022-11-05T06:59:26.774Z,4.87
2022-11-05T07:01:53.405Z,5.00
2022-11-05T07:04:20.027Z,4.98
2022-11-05T07:06:46.630Z,5.01
2022-11-05T07:09:13.185Z,5.10
2022-11-05T07:11:39.779Z,5.16
2022-11-05T07:14:07.654Z,5.20
2022-11-05T07:16:34.192Z,5.20
2022-11-05T07:19:00.864Z,5.31
2022-11-05T07:21:28.393Z,5.38
2022-11-05T07:23:54.954Z,5.42
2022-11-05T07:26:21.496Z,5.38
2022-11-05T07:28:48.030Z,5.53
2022-11-05T07:31:15.904Z,5.43
2022-11-05T07:33:42.408Z,5.59
2022-11-05T07:36:09.883Z,5.60
2022-11-05T07:38:36.378Z,5.64
2022-11-05T07:41:02.949Z,5.66
2022-11-05T07:43:29.509Z,5.64
2022-11-05T07:45:56.284Z,5.75
2022-11-05T07:48:24.272Z,5.82
2022-11-05T07:50:52.098Z,5.82
2022-11-05T07:53:18.936Z,5.90
2022-11-05T07:55:45.542Z,5.92
2022-11-05T07:58:12.299Z,5.99
2022-11-05T08:00:39.096Z,6.09
2022-11-05T08:03:09.332Z,6.05
2022-11-05T08:05:39.584Z,6.09
2022-11-05T08:08:07.856Z,6.20
2022-11-05T08:10:35.182Z,6.27
2022-11-05T08:13:01.914Z,6.41
2022-11-05T08:15:29.092Z,6.42
2022-11-05T08:17:58.636Z,6.47
2022-11-05T08:20:25.282Z,6.53
2022-11-05T08:22:53.180Z,6.69
2022-11-05T08:25:19.840Z,6.73
2022-11-05T08:27:46.445Z,6.82
2022-11-05T08:30:13.168Z,6.99
2022-11-05T08:32:39.901Z,7.02
2022-11-05T08:35:07.011Z,7.11
2022-11-05T08:37:33.560Z,7.20
2022-11-05T08:40:01.451Z,7.32
2022-11-05T08:42:27.963Z,7.33
2022-11-05T08:44:54.786Z,7.46
2022-11-05T08:47:21.289Z,7.58
2022-11-05T08:49:47.822Z,7.67
2022-11-05T08:52:14.534Z,7.78
2022-11-05T08:54:41.144Z,7.84
2022-11-05T08:57:08.996Z,8.02
2022-11-05T08:59:35.553Z,8.27
2022-11-05T09:02:02.191Z,8.35
2022-11-05T09:04:28.797Z,8.53
2022-11-05T09:06:55.385Z,8.70
2022-11-05T09:09:21.906Z,8.81
2022-11-05T09:12:11.186Z,8.97
2022-11-05T09:14:36.370Z,9.28
2022-11-05T09:17:02.897Z,9.33
2022-11-05T09:19:29.424Z,9.53
2022-11-05T09:21:55.987Z,9.44
2022-11-05T09:24:22.557Z,9.67
2022-11-05T09:26:49.029Z,9.82
2022-11-05T09:29:15.577Z,9.72
2022-11-05T09:31:43.834Z,9.83
2022-11-05T09:34:10.383Z,9.96
2022-11-05T09:36:36.879Z,10.03
2022-11-05T09:39:03.549Z,10.15
2022-11-05T09:41:35.558Z,10.16
2022-11-05T09:44:05.274Z,10.21
2022-11-05T09:46:40.972Z,10.46
2022-11-05T09:49:22.769Z,10.71
2022-11-05T09:51:49.423Z,10.69
2022-11-05T09:54:16.120Z,11.14
2022-11-05T09:56:43.187Z,11.08
2022-11-05T09:59:17.953Z,11.43
2022-11-05T10:01:45.510Z,11.28
2022-11-05T10:04:18.449Z,11.50
2022-11-05T10:06:47.600Z,11.40
2022-11-05T10:09:21.100Z,11.23
2022-11-05T10:11:53.283Z,11.24
2022-11-05T10:14:23.985Z,10.99
2022-11-05T10:16:56.502Z,11.08
2022-11-05T10:19:26.358Z,11.06
2022-11-05T10:22:10.963Z,10.96
2022-11-05T10:24:41.605Z,10.91
2022-11-05T10:27:14.601Z,10.89
2022-11-05T10:29:43.251Z,10.79
2022-11-05T10:32:17.768Z,11.00
2022-11-05T10:34:45.828Z,11.06
2022-11-05T10:37:12.532Z,11.18
2022-11-05T10:39:39.137Z,11.76
2022-11-05T10:42:24.283Z,12.04
2022-11-05T10:44:55.984Z,12.26
2022-11-05T10:47:45.290Z,12.42
2022-11-05T10:50:17.204Z,12.33
2022-11-05T10:52:55.494Z,12.44
2022-11-05T10:55:26.209Z,12.42
2022-11-05T10:57:53.558Z,12.50
2022-11-05T11:00:27.311Z,12.40
2022-11-05T11:02:56.684Z,12.19
2022-11-05T11:05:28.646Z,12.10
2022-11-05T11:08:05.309Z,12.20
2022-11-05T11:10:42.208Z,12.05
2022-11-05T11:13:18.949Z,12.06
2022-11-05T11:15:45.542Z,12.17
2022-11-05T11:18:26.368Z,12.11
2022-11-05T11:21:05.359Z,12.09
2022-11-05T11:23:37.163Z,12.09
2022-11-05T11:26:03.974Z,12.06
2022-11-05T11:28:34.829Z,11.87
2022-11-05T11:31:06.115Z,11.93
2022-11-05T11:33:35.022Z,12.05
2022-11-05T11:36:03.807Z,11.86
2022-11-05T11:38:32.879Z,12.05
2022-11-05T11:41:03.135Z,12.12
2022-11-05T11:43:33.384Z,12.22
2022-11-05T11:46:06.062Z,12.23
2022-11-05T11:48:36.224Z,12.13
2022-11-05T11:51:18.749Z,12.21
2022-11-05T11:53:47.831Z,12.34
2022-11-05T11:56:17.475Z,12.37
2022-11-05T11:58:47.312Z,12.59
2022-11-05T12:01:46.908Z,12.51
2022-11-05T12:04:48.921Z,12.61
2022-11-05T12:07:37.990Z,12.60
2022-11-05T12:10:20.550Z,12.68
2022-11-05T12:12:52.461Z,12.81
2022-11-05T12:15:29.915Z,12.77
2022-11-05T12:18:01.998Z,12.65
2022-11-05T12:20:48.455Z,12.77
2022-11-05T12:23:36.384Z,13.04
2022-11-05T12:26:14.942Z,13.22
2022-11-05T12:29:17.164Z,12.98
2022-11-05T12:31:52.446Z,13.07
2022-11-05T12:34:35.597Z,13.21
2022-11-05T12:37:18.118Z,13.07
2022-11-05T12:39:55.483Z,12.87
2022-11-05T12:42:36.091Z,12.75
2022-11-05T12:45:12.312Z,12.83
2022-11-05T12:47:54.641Z,12.63
2022-11-05T12:50:28.566Z,12.73
2022-11-05T12:53:44.368Z,12.87
2022-11-05T12:56:18.689Z,12.95
2022-11-05T12:58:50.476Z,13.20
2022-11-05T13:01:21.962Z,13.18
2022-11-05T13:03:54.264Z,13.23
2022-11-05T13:06:25.517Z,13.29
2022-11-05T13:09:00.465Z,13.34
2022-11-05T13:11:34.497Z,13.37
2022-11-05T13:14:11.207Z,13.24
2022-11-05T13:16:40.677Z,13.07
2022-11-05T13:19:15.772Z,13.10
2022-11-05T13:21:44.120Z,13.11
2022-11-05T13:24:17.527Z,13.02
2022-11-05T13:27:01.552Z,12.81
2022-11-05T13:29:35.087Z,12.74
2022-11-05T13:32:21.583Z,12.63
2022-11-05T13:34:49.153Z,12.58
2022-11-05T13:37:25.879Z,12.40
2022-11-05T13:40:01.300Z,12.45
2022-11-05T13:42:56.477Z,12.41
2022-11-05T13:45:42.507Z,12.32
2022-11-05T13:48:31.881Z,12.36
2022-11-05T13:51:42.982Z,12.28
2022-11-05T13:54:46.548Z,12.27
2022-11-05T13:57:43.741Z,12.22
2022-11-05T14:00:17.372Z,12.14
2022-11-05T14:02:48.090Z,12.07
2022-11-05T14:05:27.692Z,12.07
2022-11-05T14:07:56.004Z,12.03
2022-11-05T14:10:33.921Z,11.95
2022-11-05T14:13:09.063Z,11.94
2022-11-05T14:15:37.336Z,11.94
2022-11-05T14:18:06.217Z,11.91
2022-11-05T14:20:58.428Z,11.96
2022-11-05T14:23:38.288Z,11.97
2022-11-05T14:26:23.364Z,11.91
2022-11-05T14:29:14.549Z,11.92
2022-11-05T14:32:08.403Z,11.86
2022-11-05T14:34:45.832Z,11.85
2022-11-05T14:37:24.754Z,11.82
2022-11-05T14:39:53.422Z,11.85
2022-11-05T14:42:24.459Z,11.80
2022-11-05T14:45:25.825Z,11.75
2022-11-05T14:47:57.627Z,11.88
2022-11-05T14:50:31.877Z,11.85
2022-11-05T14:53:04.549Z,11.91
2022-11-05T14:55:34.837Z,11.80
2022-11-05T14:58:05.268Z,11.82
2022-11-05T15:00:48.193Z,11.72
2022-11-05T15:03:39.768Z,11.59
2022-11-05T15:06:25.833Z,11.49
2022-11-05T15:09:11.051Z,11.49
2022-11-05T15:11:40.547Z,11.47
2022-11-05T15:14:18.395Z,11.47
2022-11-05T15:16:50.014Z,11.38
2022-11-05T15:19:22.603Z,11.32
2022-11-05T15:21:49.695Z,11.24
2022-11-05T15:24:19.047Z,11.18
2022-11-05T15:26:51.319Z,11.10
2022-11-05T15:29:19.575Z,10.98
2022-11-05T15:31:46.766Z,10.90
2022-11-05T15:34:21.169Z,10.84
2022-11-05T15:36:56.137Z,10.85
2022-11-05T15:39:31.042Z,10.86
2022-11-05T15:41:58.588Z,10.84
2022-11-05T15:44:27.394Z,10.85
2022-11-05T15:47:22.351Z,10.83
2022-11-05T15:49:53.016Z,10.79
2022-11-05T15:52:21.849Z,10.75
2022-11-05T15:55:16.904Z,10.71
2022-11-05T15:57:50.628Z,10.64
2022-11-05T16:00:20.309Z,10.60
2022-11-05T16:02:54.531Z,10.49
2022-11-05T16:05:25.238Z,10.44
2022-11-05T16:07:52.289Z,10.44
2022-11-05T16:10:21.346Z,10.43
2022-11-05T16:12:48.372Z,10.38
2022-11-05T16:15:21.145Z,10.43
2022-11-05T16:17:51.261Z,10.39
2022-11-05T16:20:20.534Z,10.38
2022-11-05T16:22:49.964Z,10.37
2022-11-05T16:25:37.621Z,10.42
2022-11-05T16:28:06.337Z,10.34
2022-11-05T16:30:33.048Z,10.35
2022-11-05T16:33:04.760Z,10.30
2022-11-05T16:35:31.706Z,10.26
2022-11-05T16:38:00.910Z,10.25
2022-11-05T16:40:27.706Z,10.30
2022-11-05T16:42:54.485Z,10.30
2022-11-05T16:45:24.374Z,10.26
2022-11-05T16:47:51.955Z,10.21
2022-11-05T16:50:23.672Z,10.29
2022-11-05T16:52:50.882Z,10.31
2022-11-05T16:55:19.216Z,10.30
2022-11-05T16:57:49.579Z,10.42
2022-11-05T17:00:18.100Z,10.42
2022-11-05T17:02:45.091Z,10.41
2022-11-05T17:05:19.346Z,10.43
2022-11-05T17:07:46.368Z,10.53
2022-11-05T17:10:13.317Z,10.50
2022-11-05T17:12:41.639Z,10.54
2022-11-05T17:15:17.725Z,10.49
2022-11-05T17:17:44.724Z,10.49
2022-11-05T17:20:19.047Z,10.48
2022-11-05T17:22:45.634Z,10.53
2022-11-05T17:25:12.227Z,10.55
2022-11-05T17:27:38.952Z,10.52
2022-11-05T17:30:09.240Z,10.58
2022-11-05T17:32:36.195Z,10.58
2022-11-05T17:35:03.673Z,10.54
2022-11-05T17:37:30.517Z,10.58
2022-11-05T17:39:57.219Z,10.59
2022-11-05T17:42:24.033Z,10.62
2022-11-05T17:44:50.649Z,10.64
2022-11-05T17:47:18.725Z,10.65
2022-11-05T17:49:46.020Z,10.68
2022-11-05T17:52:12.553Z,10.60
2022-11-05T17:54:39.157Z,10.66
2022-11-05T17:57:06.086Z,10.64
2022-11-05T17:59:32.662Z,10.54
2022-11-05T18:01:59.434Z,10.64
2022-11-05T18:04:27.839Z,10.56
2022-11-05T18:06:54.514Z,10.60
2022-11-05T18:09:21.144Z,10.58
2022-11-05T18:11:48.447Z,10.51
2022-11-05T18:14:18.766Z,10.50
2022-11-05T18:16:48.081Z,10.51
2022-11-05T18:19:14.780Z,10.54
2022-11-05T18:21:43.790Z,10.49
2022-11-05T18:24:10.425Z,10.53
2022-11-05T18:26:37.142Z,10.47
2022-11-05T18:29:05.844Z,10.49
2022-11-05T18:31:32.791Z,10.45
2022-11-05T18:34:00.032Z,10.42
2022-11-05T18:36:28.537Z,10.41
2022-11-05T18:38:57.249Z,10.41
2022-11-05T18:41:24.819Z,10.43
2022-11-05T18:43:51.769Z,10.40
2022-11-05T18:46:43.043Z,10.40
2022-11-05T18:49:05.744Z,10.36
2022-11-05T18:51:32.727Z,10.32
2022-11-05T18:54:03.341Z,10.29
2022-11-05T18:56:30.132Z,10.22
2022-11-05T18:59:15.094Z,10.18
2022-11-05T19:01:44.101Z,10.10
2022-11-05T19:04:11.454Z,10.08
2022-11-05T19:06:41.473Z,10.09
2022-11-05T19:09:10.400Z,10.05
2022-11-05T19:11:38.026Z,10.06
2022-11-05T19:14:04.970Z,10.03
2022-11-05T19:16:32.616Z,10.04
2022-11-05T19:19:00.640Z,10.02
2022-11-05T19:21:28.309Z,9.98
2022-11-05T19:23:57.450Z,9.99
2022-11-05T19:26:28.849Z,9.92
2022-11-05T19:28:57.888Z,9.92
2022-11-05T19:31:24.960Z,9.90
2022-11-05T19:33:52.800Z,9.92
2022-11-05T19:36:21.699Z,9.93
2022-11-05T19:38:49.019Z,10.00
2022-11-05T19:41:16.582Z,9.98
2022-11-05T19:43:45.854Z,10.00
2022-11-05T19:46:14.869Z,9.96
2022-11-05T19:48:42.279Z,9.96
2022-11-05T19:51:11.064Z,9.98
2022-11-05T19:53:39.329Z,9.93
2022-11-05T19:56:08.641Z,9.92
2022-11-05T19:58:35.445Z,9.94
2022-11-05T20:01:05.948Z,9.89
2022-11-05T20:03:34.293Z,9.92
2022-11-05T20:06:02.240Z,9.88
2022-11-05T20:08:29.640Z,9.90
2022-11-05T20:10:56.692Z,9.86
2022-11-05T20:13:24.200Z,9.83
2022-11-05T20:15:51.212Z,9.81
2022-11-05T20:18:19.430Z,9.81
2022-11-05T20:20:49.210Z,9.80
2022-11-05T20:23:18.285Z,9.81
2022-11-05T20:25:45.207Z,9.82
2022-11-05T20:28:12.227Z,9.77
2022-11-05T20:30:39.464Z,9.71
2022-11-05T20:33:06.277Z,9.69
2022-11-05T20:35:36.260Z,9.63
2022-11-05T20:38:03.006Z,9.57
2022-11-05T20:40:29.765Z,9.55
2022-11-05T20:42:57.020Z,9.47
2022-11-05T20:45:24.945Z,9.42
2022-11-05T20:47:52.139Z,9.46
2022-11-05T20:50:18.977Z,9.44
2022-11-05T20:52:47.317Z,9.48
2022-11-05T20:55:17.648Z,9.47
2022-11-05T20:57:45.551Z,9.53
2022-11-05T21:00:13.899Z,9.49
2022-11-05T21:02:41.912Z,9.52
2022-11-05T21:05:09.598Z,9.55
2022-11-05T21:07:36.316Z,9.52
2022-11-05T21:10:05.671Z,9.52
2022-11-05T21:12:32.325Z,9.51
2022-11-05T21:15:00.229Z,9.54
2022-11-05T21:17:27.045Z,9.58
2022-11-05T21:19:53.633Z,9.62
2022-11-05T21:22:20.348Z,9.61
2022-11-05T21:24:49.523Z,9.68
2022-11-05T21:27:20.371Z,9.72
2022-11-05T21:29:47.477Z,9.68
2022-11-05T21:32:14.185Z,9.71
2022-11-05T21:34:41.468Z,9.69
2022-11-05T21:37:08.232Z,9.74
2022-11-05T21:39:35.070Z,9.76
2022-11-05T21:42:02.341Z,9.81
2022-11-05T21:44:30.427Z,9.80
2022-11-05T21:46:57.540Z,9.81
2022-11-05T21:49:24.619Z,9.86
2022-11-05T21:51:51.819Z,9.90
2022-11-05T21:54:18.477Z,9.97
2022-11-05T21:56:45.638Z,9.92
2022-11-05T21:59:14.297Z,9.88
2022-11-05T22:01:42.509Z,9.85
2022-11-05T22:04:09.355Z,9.83
2022-11-05T22:06:36.178Z,9.86
2022-11-05T22:09:02.900Z,9.85
2022-11-05T22:11:29.637Z,9.82
2022-11-05T22:13:56.381Z,9.84
2022-11-05T22:16:23.132Z,9.83
2022-11-05T22:18:56.483Z,9.82
2022-11-05T22:21:24.521Z,9.85
2022-11-05T22:23:52.047Z,9.85
2022-11-05T22:26:19.018Z,9.85
2022-11-05T22:28:45.713Z,9.83
2022-11-05T22:31:13.079Z,9.84
2022-11-05T22:33:39.830Z,9.78
2022-11-05T22:36:08.856Z,9.76
2022-11-05T22:38:35.672Z,9.75
2022-11-05T22:41:07.340Z,9.76
2022-11-05T22:43:34.173Z,9.67
2022-11-05T22:46:03.871Z,9.57
2022-11-05T22:48:30.623Z,9.53
2022-11-05T22:51:02.773Z,9.50
2022-11-05T22:53:31.000Z,9.50
2022-11-05T22:55:58.211Z,9.46
2022-11-05T22:58:24.788Z,9.41
2022-11-05T23:00:51.429Z,9.30
2022-11-05T23:03:18.055Z,9.30
2022-11-05T23:05:44.899Z,9.26
2022-11-05T23:08:11.798Z,9.27
2022-11-05T23:10:40.286Z,9.32
2022-11-05T23:13:06.958Z,9.29
2022-11-05T23:15:34.495Z,9.32
2022-11-05T23:18:01.779Z,9.35
2022-11-05T23:20:28.419Z,9.38
2022-11-05T23:22:55.301Z,9.51
2022-11-05T23:25:23.464Z,9.50
2022-11-05T23:27:53.857Z,9.46
2022-11-05T23:30:22.281Z,9.40
2022-11-05T23:32:49.995Z,9.35
2022-11-05T23:35:17.055Z,9.33
2022-11-05T23:37:43.703Z,9.29
2022-11-05T23:40:13.282Z,9.29
2022-11-05T23:42:39.817Z,9.23
2022-11-05T23:45:14.077Z,9.21
2022-11-05T23:47:41.306Z,9.32
2022-11-05T23:50:08.577Z,9.25
2022-11-05T23:52:35.322Z,9.19
2022-11-05T23:55:01.853Z,9.21
2022-11-05T23:57:28.477Z,9.25
2022-11-05T23:59:54.959Z,9.21
